KOLS

Nogales International Airport

Nogales, Arizona, USA
KOLS 162324Z 1700/1724 VRB05KT P6SM BKN250 FM170500 VRB03KT P6SM SCT250 FM172100 27006KT P6SM SCT250
Issued Valid From Valid To
Jan-16 @ 23:24 UTC
(5 hours ago)
Jan-17 @ 00:00 UTC
(5 hours ago)
Jan-18 @ 00:00 UTC
(in 19 hours)
Jan-17 @ 00:00 to Jan-17 @ 05:00
KOLS 162324Z 1700/1724 VRB05KT P6SM BKN250
Wind Visibility Clouds
Variable at 5 knots Greater than 6 miles
  • Broken at 25,000' AGL
From Jan-17 @ 05:00 to Jan-17 @ 21:00
FM170500 VRB03KT P6SM SCT250
Wind Visibility Clouds
Variable at 3 knots Greater than 6 miles
  • Scattered at 25,000' AGL
From Jan-17 @ 21:00 to Jan-18 @ 00:00
FM172100 27006KT P6SM SCT250
Wind Visibility Clouds
270° at 6 knots Greater than 6 miles
  • Scattered at 25,000' AGL
KOLS 162324Z 1700/1724 VRB05KT P6SM BKN250 FM170500 VRB03KT P6SM SCT250 FM172100 27006KT P6SM SCT250
Issued Jan-16 @ 23:24 UTC
(5 hours ago)
Valid From Jan-17 @ 00:00 UTC
(5 hours ago)
Valid To Jan-18 @ 00:00 UTC
(in 19 hours)
Jan-17 @ 00:00 - Jan-17 @ 05:00
Wind Visibility
Variable at 5 knots Greater than 6 miles
Clouds
  • Broken at 25,000' AGL
From Jan-17 @ 05:00 - Jan-17 @ 21:00
Wind Visibility
Variable at 3 knots Greater than 6 miles
Clouds
  • Scattered at 25,000' AGL
From Jan-17 @ 21:00 - Jan-18 @ 00:00
Wind Visibility
270° at 6 knots Greater than 6 miles
Clouds
  • Scattered at 25,000' AGL